sensor_id;sensor_type;location;lat;lon;timestamp;temperature;humidity
14210;DHT22;7188;56.070;12.698;2023-02-15T00:01:43;4.30;1.00
14210;DHT22;7188;56.070;12.698;2023-02-15T00:04:12;4.40;99.90
14210;DHT22;7188;56.070;12.698;2023-02-15T00:06:38;4.60;1.00
14210;DHT22;7188;56.070;12.698;2023-02-15T00:09:03;4.70;1.00
14210;DHT22;7188;56.070;12.698;2023-02-15T00:11:29;4.60;99.90
14210;DHT22;7188;56.070;12.698;2023-02-15T00:14:16;4.60;62.90
14210;DHT22;7188;56.070;12.698;2023-02-15T00:16:43;4.70;99.90
14210;DHT22;7188;56.070;12.698;2023-02-15T00:19:10;4.60;61.90
14210;DHT22;7188;56.070;12.698;2023-02-15T00:21:37;4.50;1.00
14210;DHT22;7188;56.070;12.698;2023-02-15T00:24:05;4.70;62.40
14210;DHT22;7188;56.070;12.698;2023-02-15T00:26:31;4.60;1.00
14210;DHT22;7188;56.070;12.698;2023-02-15T00:28:57;4.70;99.90
14210;DHT22;7188;56.070;12.698;2023-02-15T00:31:28;4.50;1.00
14210;DHT22;7188;56.070;12.698;2023-02-15T00:33:56;4.50;1.00
14210;DHT22;7188;56.070;12.698;2023-02-15T00:36:25;4.50;1.00
14210;DHT22;7188;56.070;12.698;2023-02-15T00:38:51;4.60;1.00
14210;DHT22;7188;56.070;12.698;2023-02-15T00:41:16;4.60;1.00
14210;DHT22;7188;56.070;12.698;2023-02-15T00:43:42;4.60;99.90
14210;DHT22;7188;56.070;12.698;2023-02-15T00:46:08;4.60;18.50
14210;DHT22;7188;56.070;12.698;2023-02-15T00:48:33;4.70;28.10
14210;DHT22;7188;56.070;12.698;2023-02-15T00:51:00;4.70;99.90
14210;DHT22;7188;56.070;12.698;2023-02-15T00:53:27;4.70;99.90
14210;DHT22;7188;56.070;12.698;2023-02-15T00:55:53;4.80;99.90
14210;DHT22;7188;56.070;12.698;2023-02-15T00:58:18;4.80;99.90
14210;DHT22;7188;56.070;12.698;2023-02-15T01:00:45;4.60;1.00
14210;DHT22;7188;56.070;12.698;2023-02-15T01:03:12;4.40;1.00
14210;DHT22;7188;56.070;12.698;2023-02-15T01:05:38;4.40;1.00
14210;DHT22;7188;56.070;12.698;2023-02-15T01:08:05;4.40;1.00
14210;DHT22;7188;56.070;12.698;2023-02-15T01:10:31;4.30;1.00
14210;DHT22;7188;56.070;12.698;2023-02-15T01:12:57;4.30;1.00
14210;DHT22;7188;56.070;12.698;2023-02-15T01:15:23;4.30;1.00
14210;DHT22;7188;56.070;12.698;2023-02-15T01:17:49;4.20;1.00
14210;DHT22;7188;56.070;12.698;2023-02-15T01:20:26;4.20;1.00
14210;DHT22;7188;56.070;12.698;2023-02-15T01:22:53;4.10;1.00
14210;DHT22;7188;56.070;12.698;2023-02-15T01:25:20;4.30;99.90
14210;DHT22;7188;56.070;12.698;2023-02-15T01:27:46;4.20;1.00
14210;DHT22;7188;56.070;12.698;2023-02-15T01:30:13;4.10;1.00
14210;DHT22;7188;56.070;12.698;2023-02-15T01:32:39;4.20;99.90
14210;DHT22;7188;56.070;12.698;2023-02-15T01:35:05;4.20;99.90
14210;DHT22;7188;56.070;12.698;2023-02-15T01:37:32;4.20;99.90
14210;DHT22;7188;56.070;12.698;2023-02-15T01:39:57;4.30;99.90
14210;DHT22;7188;56.070;12.698;2023-02-15T01:42:26;4.20;99.90
14210;DHT22;7188;56.070;12.698;2023-02-15T01:45:04;4.10;99.90
14210;DHT22;7188;56.070;12.698;2023-02-15T01:47:37;4.00;99.90
14210;DHT22;7188;56.070;12.698;2023-02-15T01:50:12;3.90;99.90
14210;DHT22;7188;56.070;12.698;2023-02-15T01:52:51;3.90;99.90
14210;DHT22;7188;56.070;12.698;2023-02-15T01:55:18;3.90;99.90
14210;DHT22;7188;56.070;12.698;2023-02-15T01:57:45;4.10;1.00
14210;DHT22;7188;56.070;12.698;2023-02-15T02:00:34;4.10;1.00
14210;DHT22;7188;56.070;12.698;2023-02-15T02:03:00;4.10;1.00
14210;DHT22;7188;56.070;12.698;2023-02-15T02:05:26;4.10;1.00
14210;DHT22;7188;56.070;12.698;2023-02-15T02:07:56;4.10;1.00
14210;DHT22;7188;56.070;12.698;2023-02-15T02:10:23;4.10;1.00
14210;DHT22;7188;56.070;12.698;2023-02-15T02:12:53;4.20;1.00
14210;DHT22;7188;56.070;12.698;2023-02-15T02:15:26;4.10;1.00
14210;DHT22;7188;56.070;12.698;2023-02-15T02:34:29;4.20;31.90
14210;DHT22;7188;56.070;12.698;2023-02-15T02:37:24;4.30;99.90
14210;DHT22;7188;56.070;12.698;2023-02-15T02:40:10;4.40;99.90
14210;DHT22;7188;56.070;12.698;2023-02-15T02:42:56;4.20;1.00
14210;DHT22;7188;56.070;12.698;2023-02-15T02:45:53;4.10;55.30
14210;DHT22;7188;56.070;12.698;2023-02-15T02:48:24;4.10;1.00
14210;DHT22;7188;56.070;12.698;2023-02-15T02:50:51;4.30;99.90
14210;DHT22;7188;56.070;12.698;2023-02-15T02:53:16;4.40;1.00
14210;DHT22;7188;56.070;12.698;2023-02-15T02:55:48;4.30;99.90
14210;DHT22;7188;56.070;12.698;2023-02-15T03:00:59;4.30;99.90
14210;DHT22;7188;56.070;12.698;2023-02-15T03:04:18;4.30;99.90
14210;DHT22;7188;56.070;12.698;2023-02-15T03:06:38;4.30;99.90
14210;DHT22;7188;56.070;12.698;2023-02-15T03:09:12;4.40;1.00
14210;DHT22;7188;56.070;12.698;2023-02-15T03:11:44;4.60;1.00
14210;DHT22;7188;56.070;12.698;2023-02-15T03:14:11;4.50;1.00
14210;DHT22;7188;56.070;12.698;2023-02-15T03:16:40;4.40;1.00
14210;DHT22;7188;56.070;12.698;2023-02-15T03:19:13;4.50;99.90
14210;DHT22;7188;56.070;12.698;2023-02-15T03:24:19;4.10;99.90
14210;DHT22;7188;56.070;12.698;2023-02-15T03:26:49;4.00;99.90
14210;DHT22;7188;56.070;12.698;2023-02-15T03:29:17;4.00;1.00
14210;DHT22;7188;56.070;12.698;2023-02-15T03:31:46;4.30;99.90
14210;DHT22;7188;56.070;12.698;2023-02-15T03:34:15;4.30;99.90
14210;DHT22;7188;56.070;12.698;2023-02-15T03:45:05;4.40;99.90
14210;DHT22;7188;56.070;12.698;2023-02-15T03:47:36;4.80;1.00
14210;DHT22;7188;56.070;12.698;2023-02-15T03:52:53;4.30;99.90
14210;DHT22;7188;56.070;12.698;2023-02-15T03:55:19;4.40;1.00
14210;DHT22;7188;56.070;12.698;2023-02-15T03:57:45;4.50;1.00
14210;DHT22;7188;56.070;12.698;2023-02-15T04:00:34;4.30;99.90
14210;DHT22;7188;56.070;12.698;2023-02-15T04:03:40;4.30;99.90
14210;DHT22;7188;56.070;12.698;2023-02-15T04:06:07;4.10;99.90
14210;DHT22;7188;56.070;12.698;2023-02-15T04:08:32;4.10;99.90
14210;DHT22;7188;56.070;12.698;2023-02-15T04:11:17;4.10;99.90
14210;DHT22;7188;56.070;12.698;2023-02-15T04:13:42;4.20;1.00
14210;DHT22;7188;56.070;12.698;2023-02-15T04:16:08;4.30;86.80
14210;DHT22;7188;56.070;12.698;2023-02-15T04:18:38;4.40;1.00
14210;DHT22;7188;56.070;12.698;2023-02-15T04:21:23;4.30;1.00
14210;DHT22;7188;56.070;12.698;2023-02-15T04:24:09;4.10;99.90
14210;DHT22;7188;56.070;12.698;2023-02-15T04:26:53;4.20;1.00
14210;DHT22;7188;56.070;12.698;2023-02-15T04:29:20;4.10;1.00
14210;DHT22;7188;56.070;12.698;2023-02-15T04:31:46;4.20;1.00
14210;DHT22;7188;56.070;12.698;2023-02-15T04:34:12;4.00;1.00
14210;DHT22;7188;56.070;12.698;2023-02-15T04:36:39;4.10;1.00
14210;DHT22;7188;56.070;12.698;2023-02-15T04:39:05;4.20;1.00
14210;DHT22;7188;56.070;12.698;2023-02-15T04:41:32;4.30;99.90
14210;DHT22;7188;56.070;12.698;2023-02-15T04:43:58;4.40;99.90
14210;DHT22;7188;56.070;12.698;2023-02-15T04:46:25;4.30;1.00
14210;DHT22;7188;56.070;12.698;2023-02-15T04:48:50;4.30;1.00
14210;DHT22;7188;56.070;12.698;2023-02-15T04:51:16;4.30;99.90
14210;DHT22;7188;56.070;12.698;2023-02-15T04:54:00;4.20;1.00
14210;DHT22;7188;56.070;12.698;2023-02-15T04:56:25;4.10;1.00
14210;DHT22;7188;56.070;12.698;2023-02-15T04:58:51;4.30;1.00
14210;DHT22;7188;56.070;12.698;2023-02-15T05:01:17;4.30;44.60
14210;DHT22;7188;56.070;12.698;2023-02-15T05:03:43;4.30;53.60
14210;DHT22;7188;56.070;12.698;2023-02-15T05:06:08;4.40;99.90
14210;DHT22;7188;56.070;12.698;2023-02-15T05:08:34;4.50;99.90
14210;DHT22;7188;56.070;12.698;2023-02-15T05:11:00;4.50;1.00
14210;DHT22;7188;56.070;12.698;2023-02-15T05:13:25;4.70;1.00
14210;DHT22;7188;56.070;12.698;2023-02-15T05:15:52;4.70;99.90
14210;DHT22;7188;56.070;12.698;2023-02-15T05:18:19;4.60;1.00
14210;DHT22;7188;56.070;12.698;2023-02-15T05:20:46;4.60;1.00
14210;DHT22;7188;56.070;12.698;2023-02-15T05:23:12;4.80;99.90
14210;DHT22;7188;56.070;12.698;2023-02-15T05:25:38;4.70;1.00
14210;DHT22;7188;56.070;12.698;2023-02-15T05:28:23;4.90;99.90
14210;DHT22;7188;56.070;12.698;2023-02-15T05:31:13;4.90;1.00
14210;DHT22;7188;56.070;12.698;2023-02-15T05:33:39;4.90;1.00
14210;DHT22;7188;56.070;12.698;2023-02-15T05:36:05;4.80;99.90
14210;DHT22;7188;56.070;12.698;2023-02-15T05:38:32;5.00;1.00
14210;DHT22;7188;56.070;12.698;2023-02-15T05:40:58;5.00;1.00
14210;DHT22;7188;56.070;12.698;2023-02-15T05:43:24;4.90;99.90
14210;DHT22;7188;56.070;12.698;2023-02-15T05:45:52;4.90;99.90
14210;DHT22;7188;56.070;12.698;2023-02-15T05:48:19;4.90;99.90
14210;DHT22;7188;56.070;12.698;2023-02-15T05:50:45;4.90;68.20
14210;DHT22;7188;56.070;12.698;2023-02-15T05:53:11;5.00;99.90
14210;DHT22;7188;56.070;12.698;2023-02-15T05:55:41;5.00;99.90
14210;DHT22;7188;56.070;12.698;2023-02-15T05:58:07;5.10;99.90
14210;DHT22;7188;56.070;12.698;2023-02-15T06:00:36;5.00;36.80
14210;DHT22;7188;56.070;12.698;2023-02-15T06:03:01;5.00;1.00
14210;DHT22;7188;56.070;12.698;2023-02-15T06:05:27;4.90;1.00
14210;DHT22;7188;56.070;12.698;2023-02-15T06:07:53;4.90;60.00
14210;DHT22;7188;56.070;12.698;2023-02-15T06:10:18;4.80;99.90
14210;DHT22;7188;56.070;12.698;2023-02-15T06:12:44;4.90;99.90
14210;DHT22;7188;56.070;12.698;2023-02-15T06:15:10;4.90;99.90
14210;DHT22;7188;56.070;12.698;2023-02-15T06:17:36;5.00;99.90
14210;DHT22;7188;56.070;12.698;2023-02-15T06:20:01;4.90;99.90
14210;DHT22;7188;56.070;12.698;2023-02-15T06:22:28;5.00;99.90
14210;DHT22;7188;56.070;12.698;2023-02-15T06:24:53;5.10;99.90
14210;DHT22;7188;56.070;12.698;2023-02-15T06:27:22;5.00;54.10
14210;DHT22;7188;56.070;12.698;2023-02-15T06:29:47;4.80;1.00
14210;DHT22;7188;56.070;12.698;2023-02-15T06:32:13;4.70;1.00
14210;DHT22;7188;56.070;12.698;2023-02-15T06:34:38;4.60;1.00
14210;DHT22;7188;56.070;12.698;2023-02-15T06:37:04;4.70;99.90
14210;DHT22;7188;56.070;12.698;2023-02-15T06:39:30;4.80;1.00
14210;DHT22;7188;56.070;12.698;2023-02-15T06:41:55;4.90;1.00
14210;DHT22;7188;56.070;12.698;2023-02-15T06:44:21;5.10;1.00
14210;DHT22;7188;56.070;12.698;2023-02-15T06:46:48;5.20;1.00
14210;DHT22;7188;56.070;12.698;2023-02-15T06:49:13;5.00;99.90
14210;DHT22;7188;56.070;12.698;2023-02-15T06:51:39;4.80;99.90
14210;DHT22;7188;56.070;12.698;2023-02-15T06:54:04;4.70;99.90
14210;DHT22;7188;56.070;12.698;2023-02-15T06:56:30;4.70;99.90
14210;DHT22;7188;56.070;12.698;2023-02-15T06:58:56;4.70;1.00
14210;DHT22;7188;56.070;12.698;2023-02-15T07:01:21;4.70;1.00
14210;DHT22;7188;56.070;12.698;2023-02-15T07:03:47;4.70;1.00
14210;DHT22;7188;56.070;12.698;2023-02-15T07:06:13;4.80;1.00
14210;DHT22;7188;56.070;12.698;2023-02-15T07:08:39;4.80;1.00
14210;DHT22;7188;56.070;12.698;2023-02-15T07:11:05;4.80;99.90
14210;DHT22;7188;56.070;12.698;2023-02-15T07:13:50;4.90;1.00
14210;DHT22;7188;56.070;12.698;2023-02-15T07:16:18;5.00;1.00
14210;DHT22;7188;56.070;12.698;2023-02-15T07:18:43;5.10;1.00
14210;DHT22;7188;56.070;12.698;2023-02-15T07:21:09;5.10;99.90
14210;DHT22;7188;56.070;12.698;2023-02-15T07:23:39;5.30;1.00
14210;DHT22;7188;56.070;12.698;2023-02-15T07:26:06;5.40;1.00
14210;DHT22;7188;56.070;12.698;2023-02-15T07:28:33;5.40;1.00
14210;DHT22;7188;56.070;12.698;2023-02-15T07:31:01;5.30;99.90
14210;DHT22;7188;56.070;12.698;2023-02-15T07:33:27;5.30;99.90
14210;DHT22;7188;56.070;12.698;2023-02-15T07:35:56;5.20;36.80
14210;DHT22;7188;56.070;12.698;2023-02-15T07:38:24;5.20;71.60
14210;DHT22;7188;56.070;12.698;2023-02-15T07:40:50;5.30;1.00
14210;DHT22;7188;56.070;12.698;2023-02-15T07:43:16;5.40;1.00
14210;DHT22;7188;56.070;12.698;2023-02-15T07:45:42;5.40;1.00
14210;DHT22;7188;56.070;12.698;2023-02-15T07:48:08;5.30;99.90
14210;DHT22;7188;56.070;12.698;2023-02-15T07:50:34;5.30;99.90
14210;DHT22;7188;56.070;12.698;2023-02-15T07:53:02;5.30;1.00
14210;DHT22;7188;56.070;12.698;2023-02-15T07:55:28;5.20;99.90
14210;DHT22;7188;56.070;12.698;2023-02-15T07:57:54;5.20;1.00
14210;DHT22;7188;56.070;12.698;2023-02-15T08:00:21;5.20;95.00
14210;DHT22;7188;56.070;12.698;2023-02-15T08:02:55;5.20;99.90
14210;DHT22;7188;56.070;12.698;2023-02-15T08:05:40;5.10;99.90
14210;DHT22;7188;56.070;12.698;2023-02-15T08:08:07;5.10;1.00
14210;DHT22;7188;56.070;12.698;2023-02-15T08:10:33;5.20;1.00
14210;DHT22;7188;56.070;12.698;2023-02-15T08:13:17;5.20;99.90
14210;DHT22;7188;56.070;12.698;2023-02-15T08:15:50;5.30;99.90
14210;DHT22;7188;56.070;12.698;2023-02-15T08:18:16;5.30;99.90
14210;DHT22;7188;56.070;12.698;2023-02-15T08:20:41;5.40;99.90
14210;DHT22;7188;56.070;12.698;2023-02-15T08:23:07;5.40;99.90
14210;DHT22;7188;56.070;12.698;2023-02-15T08:25:32;5.50;99.90
14210;DHT22;7188;56.070;12.698;2023-02-15T08:27:58;5.40;1.00
14210;DHT22;7188;56.070;12.698;2023-02-15T08:30:24;5.40;1.00
14210;DHT22;7188;56.070;12.698;2023-02-15T08:32:49;5.40;1.00
14210;DHT22;7188;56.070;12.698;2023-02-15T08:35:15;5.30;1.00
14210;DHT22;7188;56.070;12.698;2023-02-15T08:37:40;5.30;60.10
14210;DHT22;7188;56.070;12.698;2023-02-15T08:40:07;5.50;1.00
14210;DHT22;7188;56.070;12.698;2023-02-15T08:42:33;5.40;1.00
14210;DHT22;7188;56.070;12.698;2023-02-15T08:44:59;5.40;1.00
14210;DHT22;7188;56.070;12.698;2023-02-15T08:47:31;5.50;1.00
14210;DHT22;7188;56.070;12.698;2023-02-15T08:49:56;5.40;99.90
14210;DHT22;7188;56.070;12.698;2023-02-15T08:52:22;5.30;79.70
14210;DHT22;7188;56.070;12.698;2023-02-15T08:54:48;5.30;99.90
14210;DHT22;7188;56.070;12.698;2023-02-15T08:57:14;5.30;1.00
14210;DHT22;7188;56.070;12.698;2023-02-15T09:02:48;5.70;99.90
14210;DHT22;7188;56.070;12.698;2023-02-15T09:05:13;5.70;1.00
14210;DHT22;7188;56.070;12.698;2023-02-15T09:07:39;5.70;1.00
14210;DHT22;7188;56.070;12.698;2023-02-15T09:10:06;5.60;99.90
14210;DHT22;7188;56.070;12.698;2023-02-15T09:12:32;5.50;99.90
14210;DHT22;7188;56.070;12.698;2023-02-15T09:14:58;5.50;99.90
14210;DHT22;7188;56.070;12.698;2023-02-15T09:17:25;5.50;1.00
14210;DHT22;7188;56.070;12.698;2023-02-15T09:19:50;5.50;99.90
14210;DHT22;7188;56.070;12.698;2023-02-15T09:22:16;5.50;1.00
14210;DHT22;7188;56.070;12.698;2023-02-15T09:24:42;5.50;99.90
14210;DHT22;7188;56.070;12.698;2023-02-15T09:27:08;5.70;24.70
14210;DHT22;7188;56.070;12.698;2023-02-15T09:29:34;5.80;1.00
14210;DHT22;7188;56.070;12.698;2023-02-15T09:31:59;5.70;1.00
14210;DHT22;7188;56.070;12.698;2023-02-15T09:34:25;5.70;99.90
14210;DHT22;7188;56.070;12.698;2023-02-15T09:36:51;5.70;1.00
14210;DHT22;7188;56.070;12.698;2023-02-15T09:39:19;5.60;99.90
14210;DHT22;7188;56.070;12.698;2023-02-15T10:06:43;5.70;97.40
14210;DHT22;7188;56.070;12.698;2023-02-15T10:10:15;5.70;99.90
14210;DHT22;7188;56.070;12.698;2023-02-15T10:17:53;5.70;1.00
14210;DHT22;7188;56.070;12.698;2023-02-15T10:28:37;5.60;9.80
14210;DHT22;7188;56.070;12.698;2023-02-15T10:31:39;5.60;1.00
14210;DHT22;7188;56.070;12.698;2023-02-15T10:34:34;5.50;1.00
14210;DHT22;7188;56.070;12.698;2023-02-15T10:40:10;5.50;99.90
14210;DHT22;7188;56.070;12.698;2023-02-15T10:42:56;5.50;99.90
14210;DHT22;7188;56.070;12.698;2023-02-15T10:45:40;5.50;99.90
14210;DHT22;7188;56.070;12.698;2023-02-15T10:50:55;5.50;1.00
14210;DHT22;7188;56.070;12.698;2023-02-15T11:07:44;5.70;99.90
14210;DHT22;7188;56.070;12.698;2023-02-15T11:10:30;5.70;99.90
14210;DHT22;7188;56.070;12.698;2023-02-15T11:12:58;5.70;1.00
14210;DHT22;7188;56.070;12.698;2023-02-15T11:15:35;5.60;1.00
14210;DHT22;7188;56.070;12.698;2023-02-15T11:18:27;5.50;1.00
14210;DHT22;7188;56.070;12.698;2023-02-15T11:23:27;5.60;1.00
14210;DHT22;7188;56.070;12.698;2023-02-15T11:25:59;5.70;1.00
14210;DHT22;7188;56.070;12.698;2023-02-15T11:28:34;5.70;1.00
14210;DHT22;7188;56.070;12.698;2023-02-15T11:31:17;5.70;1.00
14210;DHT22;7188;56.070;12.698;2023-02-15T11:33:47;5.60;99.90
14210;DHT22;7188;56.070;12.698;2023-02-15T11:36:21;5.60;99.90
14210;DHT22;7188;56.070;12.698;2023-02-15T11:38:52;5.60;99.90
14210;DHT22;7188;56.070;12.698;2023-02-15T11:41:24;5.70;99.90
14210;DHT22;7188;56.070;12.698;2023-02-15T11:43:58;5.60;1.00
14210;DHT22;7188;56.070;12.698;2023-02-15T11:46:25;5.60;1.00
14210;DHT22;7188;56.070;12.698;2023-02-15T11:48:51;5.70;1.00
14210;DHT22;7188;56.070;12.698;2023-02-15T11:51:19;5.60;1.00
14210;DHT22;7188;56.070;12.698;2023-02-15T11:53:46;5.60;99.90
14210;DHT22;7188;56.070;12.698;2023-02-15T11:56:38;5.60;99.90
14210;DHT22;7188;56.070;12.698;2023-02-15T11:59:13;5.70;99.90
14210;DHT22;7188;56.070;12.698;2023-02-15T12:01:47;5.70;99.90
14210;DHT22;7188;56.070;12.698;2023-02-15T12:04:42;5.70;99.90
14210;DHT22;7188;56.070;12.698;2023-02-15T12:07:36;5.70;99.90
14210;DHT22;7188;56.070;12.698;2023-02-15T12:10:23;5.60;1.00
14210;DHT22;7188;56.070;12.698;2023-02-15T12:13:09;5.60;1.00
14210;DHT22;7188;56.070;12.698;2023-02-15T12:15:36;5.50;1.00
14210;DHT22;7188;56.070;12.698;2023-02-15T12:18:03;5.50;1.00
14210;DHT22;7188;56.070;12.698;2023-02-15T12:20:32;5.40;1.00
14210;DHT22;7188;56.070;12.698;2023-02-15T12:23:04;5.40;99.90
14210;DHT22;7188;56.070;12.698;2023-02-15T12:25:51;5.60;99.90
14210;DHT22;7188;56.070;12.698;2023-02-15T12:28:40;5.70;1.00
14210;DHT22;7188;56.070;12.698;2023-02-15T12:31:39;5.70;99.90
14210;DHT22;7188;56.070;12.698;2023-02-15T12:36:54;5.50;44.40
14210;DHT22;7188;56.070;12.698;2023-02-15T12:39:30;5.50;7.90
14210;DHT22;7188;56.070;12.698;2023-02-15T12:42:03;5.40;1.00
14210;DHT22;7188;56.070;12.698;2023-02-15T12:44:35;5.40;99.90
14210;DHT22;7188;56.070;12.698;2023-02-15T12:47:06;5.50;1.00
14210;DHT22;7188;56.070;12.698;2023-02-15T12:49:43;5.60;99.90
14210;DHT22;7188;56.070;12.698;2023-02-15T12:54:45;5.40;18.50
14210;DHT22;7188;56.070;12.698;2023-02-15T12:57:29;5.40;34.20
14210;DHT22;7188;56.070;12.698;2023-02-15T13:04:57;5.50;99.90
14210;DHT22;7188;56.070;12.698;2023-02-15T13:07:30;5.60;99.90
14210;DHT22;7188;56.070;12.698;2023-02-15T13:09:57;5.70;1.00
14210;DHT22;7188;56.070;12.698;2023-02-15T13:12:25;5.60;17.30
14210;DHT22;7188;56.070;12.698;2023-02-15T13:15:31;5.50;1.00
14210;DHT22;7188;56.070;12.698;2023-02-15T13:17:58;5.50;1.00
14210;DHT22;7188;56.070;12.698;2023-02-15T13:20:25;5.50;1.00
14210;DHT22;7188;56.070;12.698;2023-02-15T13:23:03;5.70;99.90
14210;DHT22;7188;56.070;12.698;2023-02-15T13:25:44;5.70;1.00
14210;DHT22;7188;56.070;12.698;2023-02-15T13:28:13;5.60;1.00
14210;DHT22;7188;56.070;12.698;2023-02-15T13:30:44;5.60;1.00
14210;DHT22;7188;56.070;12.698;2023-02-15T13:33:18;5.40;1.00
14210;DHT22;7188;56.070;12.698;2023-02-15T13:38:48;5.50;1.00
14210;DHT22;7188;56.070;12.698;2023-02-15T13:41:27;5.60;99.90
14210;DHT22;7188;56.070;12.698;2023-02-15T14:05:35;5.30;1.00
14210;DHT22;7188;56.070;12.698;2023-02-15T14:11:16;5.20;99.90
14210;DHT22;7188;56.070;12.698;2023-02-15T14:13:43;5.20;99.90
14210;DHT22;7188;56.070;12.698;2023-02-15T14:18:43;5.10;1.00
14210;DHT22;7188;56.070;12.698;2023-02-15T14:24:24;5.00;99.90
14210;DHT22;7188;56.070;12.698;2023-02-15T14:29:36;4.90;1.00
14210;DHT22;7188;56.070;12.698;2023-02-15T14:32:31;4.90;1.00
14210;DHT22;7188;56.070;12.698;2023-02-15T14:35:00;4.90;1.00
14210;DHT22;7188;56.070;12.698;2023-02-15T14:49:09;4.70;1.00
14210;DHT22;7188;56.070;12.698;2023-02-15T14:54:09;4.50;1.00
14210;DHT22;7188;56.070;12.698;2023-02-15T14:56:35;4.50;99.90
14210;DHT22;7188;56.070;12.698;2023-02-15T14:59:16;4.50;99.90
14210;DHT22;7188;56.070;12.698;2023-02-15T15:01:58;4.50;99.90
14210;DHT22;7188;56.070;12.698;2023-02-15T15:04:36;4.50;99.90
14210;DHT22;7188;56.070;12.698;2023-02-15T15:07:24;4.40;99.90
14210;DHT22;7188;56.070;12.698;2023-02-15T15:14:59;4.30;99.90
14210;DHT22;7188;56.070;12.698;2023-02-15T15:20:13;4.20;99.90
14210;DHT22;7188;56.070;12.698;2023-02-15T15:22:43;4.20;1.00
14210;DHT22;7188;56.070;12.698;2023-02-15T15:27:52;4.20;1.00
14210;DHT22;7188;56.070;12.698;2023-02-15T15:41:08;4.00;1.00
14210;DHT22;7188;56.070;12.698;2023-02-15T15:46:23;3.90;1.00
14210;DHT22;7188;56.070;12.698;2023-02-15T15:49:21;3.90;1.00
14210;DHT22;7188;56.070;12.698;2023-02-15T15:51:47;3.90;1.00
14210;DHT22;7188;56.070;12.698;2023-02-15T15:54:21;3.90;1.00
14210;DHT22;7188;56.070;12.698;2023-02-15T15:56:51;3.90;1.00
14210;DHT22;7188;56.070;12.698;2023-02-15T15:59:24;4.00;1.00
14210;DHT22;7188;56.070;12.698;2023-02-15T16:01:50;3.90;1.00
14210;DHT22;7188;56.070;12.698;2023-02-15T16:04:35;3.90;1.00
14210;DHT22;7188;56.070;12.698;2023-02-15T16:10:06;3.90;1.00
14210;DHT22;7188;56.070;12.698;2023-02-15T16:12:34;3.90;1.00
14210;DHT22;7188;56.070;12.698;2023-02-15T16:15:30;3.90;1.00
14210;DHT22;7188;56.070;12.698;2023-02-15T16:17:59;3.90;1.00
14210;DHT22;7188;56.070;12.698;2023-02-15T16:20:29;3.90;1.00
14210;DHT22;7188;56.070;12.698;2023-02-15T16:29:15;3.80;1.00
14210;DHT22;7188;56.070;12.698;2023-02-15T16:31:41;3.80;1.00
14210;DHT22;7188;56.070;12.698;2023-02-15T16:34:16;3.80;1.00
14210;DHT22;7188;56.070;12.698;2023-02-15T16:36:42;3.80;1.00
14210;DHT22;7188;56.070;12.698;2023-02-15T16:39:19;3.80;1.00
14210;DHT22;7188;56.070;12.698;2023-02-15T16:41:45;3.80;1.00
14210;DHT22;7188;56.070;12.698;2023-02-15T16:44:18;3.90;1.00
14210;DHT22;7188;56.070;12.698;2023-02-15T16:46:47;3.80;1.00
14210;DHT22;7188;56.070;12.698;2023-02-15T16:49:17;3.90;1.00
14210;DHT22;7188;56.070;12.698;2023-02-15T16:51:44;3.80;1.00
14210;DHT22;7188;56.070;12.698;2023-02-15T16:54:19;3.90;6.70
14210;DHT22;7188;56.070;12.698;2023-02-15T16:56:46;3.90;8.50
14210;DHT22;7188;56.070;12.698;2023-02-15T16:59:48;3.80;11.10
14210;DHT22;7188;56.070;12.698;2023-02-15T17:02:23;3.80;26.10
14210;DHT22;7188;56.070;12.698;2023-02-15T17:10:34;3.80;48.30
14210;DHT22;7188;56.070;12.698;2023-02-15T17:13:16;3.80;51.30
14210;DHT22;7188;56.070;12.698;2023-02-15T17:15:46;3.80;86.00
14210;DHT22;7188;56.070;12.698;2023-02-15T17:18:44;3.80;96.30
14210;DHT22;7188;56.070;12.698;2023-02-15T17:21:16;3.80;99.90
14210;DHT22;7188;56.070;12.698;2023-02-15T17:26:21;3.80;99.90
14210;DHT22;7188;56.070;12.698;2023-02-15T17:28:51;3.80;99.90
14210;DHT22;7188;56.070;12.698;2023-02-15T17:31:20;3.80;99.90
14210;DHT22;7188;56.070;12.698;2023-02-15T17:33:46;3.80;99.90
14210;DHT22;7188;56.070;12.698;2023-02-15T17:36:16;3.70;99.90
14210;DHT22;7188;56.070;12.698;2023-02-15T17:43:48;3.70;99.90
14210;DHT22;7188;56.070;12.698;2023-02-15T17:46:14;3.80;99.90
14210;DHT22;7188;56.070;12.698;2023-02-15T17:48:41;3.70;99.90
14210;DHT22;7188;56.070;12.698;2023-02-15T17:51:11;3.70;99.90
14210;DHT22;7188;56.070;12.698;2023-02-15T17:53:38;3.80;99.90
14210;DHT22;7188;56.070;12.698;2023-02-15T17:56:04;3.80;99.90
14210;DHT22;7188;56.070;12.698;2023-02-15T17:58:35;3.80;99.90
14210;DHT22;7188;56.070;12.698;2023-02-15T18:01:05;3.80;99.90
14210;DHT22;7188;56.070;12.698;2023-02-15T18:03:51;3.80;99.90
14210;DHT22;7188;56.070;12.698;2023-02-15T18:06:40;3.70;99.90
14210;DHT22;7188;56.070;12.698;2023-02-15T18:09:26;3.80;99.90
14210;DHT22;7188;56.070;12.698;2023-02-15T18:12:24;3.70;99.90
14210;DHT22;7188;56.070;12.698;2023-02-15T18:15:08;3.70;99.90
14210;DHT22;7188;56.070;12.698;2023-02-15T18:17:38;3.70;99.90
14210;DHT22;7188;56.070;12.698;2023-02-15T18:20:20;3.60;99.90
14210;DHT22;7188;56.070;12.698;2023-02-15T18:22:48;3.60;99.90
14210;DHT22;7188;56.070;12.698;2023-02-15T18:25:17;3.60;99.90
14210;DHT22;7188;56.070;12.698;2023-02-15T18:27:44;3.60;99.90
14210;DHT22;7188;56.070;12.698;2023-02-15T18:30:14;3.60;99.90
14210;DHT22;7188;56.070;12.698;2023-02-15T18:32:41;3.60;99.90
14210;DHT22;7188;56.070;12.698;2023-02-15T18:35:09;3.60;99.90
14210;DHT22;7188;56.070;12.698;2023-02-15T18:37:38;3.70;99.90
14210;DHT22;7188;56.070;12.698;2023-02-15T18:40:04;3.60;99.90
14210;DHT22;7188;56.070;12.698;2023-02-15T18:42:33;3.70;99.90
14210;DHT22;7188;56.070;12.698;2023-02-15T18:45:17;3.70;99.90
14210;DHT22;7188;56.070;12.698;2023-02-15T18:47:45;3.60;99.90
14210;DHT22;7188;56.070;12.698;2023-02-15T18:50:15;3.60;99.90
14210;DHT22;7188;56.070;12.698;2023-02-15T18:52:44;3.70;99.90
14210;DHT22;7188;56.070;12.698;2023-02-15T18:55:21;3.70;99.90
14210;DHT22;7188;56.070;12.698;2023-02-15T18:57:49;3.70;99.90
14210;DHT22;7188;56.070;12.698;2023-02-15T19:00:18;3.60;99.90
14210;DHT22;7188;56.070;12.698;2023-02-15T19:02:45;3.70;99.90
14210;DHT22;7188;56.070;12.698;2023-02-15T19:05:11;3.60;99.90
14210;DHT22;7188;56.070;12.698;2023-02-15T19:07:38;3.70;99.90
14210;DHT22;7188;56.070;12.698;2023-02-15T19:10:05;3.70;99.90
14210;DHT22;7188;56.070;12.698;2023-02-15T19:12:32;3.60;99.90
14210;DHT22;7188;56.070;12.698;2023-02-15T19:14:58;3.60;99.90
14210;DHT22;7188;56.070;12.698;2023-02-15T19:17:24;3.60;99.90
14210;DHT22;7188;56.070;12.698;2023-02-15T19:19:50;3.70;99.90
14210;DHT22;7188;56.070;12.698;2023-02-15T19:22:35;3.70;99.90
14210;DHT22;7188;56.070;12.698;2023-02-15T19:25:02;3.70;99.90
14210;DHT22;7188;56.070;12.698;2023-02-15T19:27:33;3.60;99.90
14210;DHT22;7188;56.070;12.698;2023-02-15T19:30:01;3.60;99.90
14210;DHT22;7188;56.070;12.698;2023-02-15T19:32:28;3.60;99.90
14210;DHT22;7188;56.070;12.698;2023-02-15T19:34:55;3.60;99.90
14210;DHT22;7188;56.070;12.698;2023-02-15T19:37:30;3.60;99.90
14210;DHT22;7188;56.070;12.698;2023-02-15T19:39:59;3.60;99.90
14210;DHT22;7188;56.070;12.698;2023-02-15T19:42:29;3.70;99.90